sensor_id;sensor_type;location;lat;lon;timestamp;temperature;humidity
26270;DHT22;15937;50.612;6.656;2024-01-30T00:01:37;9.30;99.90
26270;DHT22;15937;50.612;6.656;2024-01-30T00:05:39;9.30;99.90
26270;DHT22;15937;50.612;6.656;2024-01-30T00:09:41;9.30;99.90
26270;DHT22;15937;50.612;6.656;2024-01-30T00:13:43;9.30;99.90
26270;DHT22;15937;50.612;6.656;2024-01-30T00:17:46;9.30;99.90
26270;DHT22;15937;50.612;6.656;2024-01-30T00:21:48;9.30;99.90
26270;DHT22;15937;50.612;6.656;2024-01-30T00:25:50;9.30;99.90
26270;DHT22;15937;50.612;6.656;2024-01-30T00:29:52;9.30;99.90
26270;DHT22;15937;50.612;6.656;2024-01-30T00:33:54;9.30;99.90
26270;DHT22;15937;50.612;6.656;2024-01-30T00:37:56;9.10;99.90
26270;DHT22;15937;50.612;6.656;2024-01-30T00:41:59;9.10;99.90
26270;DHT22;15937;50.612;6.656;2024-01-30T00:46:01;9.10;99.90
26270;DHT22;15937;50.612;6.656;2024-01-30T00:50:03;9.00;99.90
26270;DHT22;15937;50.612;6.656;2024-01-30T00:54:05;9.00;99.90
26270;DHT22;15937;50.612;6.656;2024-01-30T00:58:08;9.10;99.90
26270;DHT22;15937;50.612;6.656;2024-01-30T01:02:10;9.30;99.90
26270;DHT22;15937;50.612;6.656;2024-01-30T01:06:15;9.30;99.90
26270;DHT22;15937;50.612;6.656;2024-01-30T01:10:17;9.30;99.90
26270;DHT22;15937;50.612;6.656;2024-01-30T01:14:19;9.30;99.90
26270;DHT22;15937;50.612;6.656;2024-01-30T01:18:21;9.40;99.90
26270;DHT22;15937;50.612;6.656;2024-01-30T01:22:23;9.30;99.90
26270;DHT22;15937;50.612;6.656;2024-01-30T01:26:25;9.50;99.90
26270;DHT22;15937;50.612;6.656;2024-01-30T01:30:27;9.50;99.90
26270;DHT22;15937;50.612;6.656;2024-01-30T01:34:30;9.60;99.90
26270;DHT22;15937;50.612;6.656;2024-01-30T02:00:16;10.20;99.90
26270;DHT22;15937;50.612;6.656;2024-01-30T02:04:19;10.20;99.90
26270;DHT22;15937;50.612;6.656;2024-01-30T02:08:24;10.20;99.90
26270;DHT22;15937;50.612;6.656;2024-01-30T02:12:26;10.20;99.90
26270;DHT22;15937;50.612;6.656;2024-01-30T02:16:28;10.30;99.90
26270;DHT22;15937;50.612;6.656;2024-01-30T02:20:30;10.30;99.90
26270;DHT22;15937;50.612;6.656;2024-01-30T02:24:33;10.30;99.90
26270;DHT22;15937;50.612;6.656;2024-01-30T02:28:35;10.40;99.90
26270;DHT22;15937;50.612;6.656;2024-01-30T02:32:38;10.40;99.90
26270;DHT22;15937;50.612;6.656;2024-01-30T02:36:45;10.30;99.90
26270;DHT22;15937;50.612;6.656;2024-01-30T02:40:47;10.40;99.90
26270;DHT22;15937;50.612;6.656;2024-01-30T02:44:49;10.40;99.90
26270;DHT22;15937;50.612;6.656;2024-01-30T02:48:51;10.40;99.90
26270;DHT22;15937;50.612;6.656;2024-01-30T02:52:53;10.40;99.90
26270;DHT22;15937;50.612;6.656;2024-01-30T02:56:55;10.30;99.90
26270;DHT22;15937;50.612;6.656;2024-01-30T03:00:57;10.30;99.90
26270;DHT22;15937;50.612;6.656;2024-01-30T03:05:00;10.40;99.90
26270;DHT22;15937;50.612;6.656;2024-01-30T03:09:02;10.40;99.90
26270;DHT22;15937;50.612;6.656;2024-01-30T03:13:04;10.40;99.90
26270;DHT22;15937;50.612;6.656;2024-01-30T03:17:06;10.40;99.90
26270;DHT22;15937;50.612;6.656;2024-01-30T03:21:08;10.30;99.90
26270;DHT22;15937;50.612;6.656;2024-01-30T03:25:11;10.30;99.90
26270;DHT22;15937;50.612;6.656;2024-01-30T03:29:13;10.30;99.90
26270;DHT22;15937;50.612;6.656;2024-01-30T03:33:15;10.30;99.90
26270;DHT22;15937;50.612;6.656;2024-01-30T03:37:17;10.30;99.90
26270;DHT22;15937;50.612;6.656;2024-01-30T03:41:19;10.20;99.90
26270;DHT22;15937;50.612;6.656;2024-01-30T03:45:21;10.20;99.90
26270;DHT22;15937;50.612;6.656;2024-01-30T03:49:23;10.10;99.90
26270;DHT22;15937;50.612;6.656;2024-01-30T03:53:25;10.10;99.90
26270;DHT22;15937;50.612;6.656;2024-01-30T03:57:27;10.00;99.90
26270;DHT22;15937;50.612;6.656;2024-01-30T04:01:29;10.00;99.90
26270;DHT22;15937;50.612;6.656;2024-01-30T04:05:31;9.90;99.90
26270;DHT22;15937;50.612;6.656;2024-01-30T04:09:34;10.00;99.90
26270;DHT22;15937;50.612;6.656;2024-01-30T04:13:36;10.00;99.90
26270;DHT22;15937;50.612;6.656;2024-01-30T04:17:38;10.00;99.90
26270;DHT22;15937;50.612;6.656;2024-01-30T04:21:40;10.00;99.90
26270;DHT22;15937;50.612;6.656;2024-01-30T04:25:42;10.00;99.90
26270;DHT22;15937;50.612;6.656;2024-01-30T04:29:45;10.00;99.90
26270;DHT22;15937;50.612;6.656;2024-01-30T04:33:48;10.00;99.90
26270;DHT22;15937;50.612;6.656;2024-01-30T04:37:53;10.00;99.90
26270;DHT22;15937;50.612;6.656;2024-01-30T04:41:55;9.90;99.90
26270;DHT22;15937;50.612;6.656;2024-01-30T04:45:57;9.80;99.90
26270;DHT22;15937;50.612;6.656;2024-01-30T04:49:59;9.80;99.90
26270;DHT22;15937;50.612;6.656;2024-01-30T04:54:02;9.60;99.90
26270;DHT22;15937;50.612;6.656;2024-01-30T04:58:04;9.60;99.90
26270;DHT22;15937;50.612;6.656;2024-01-30T05:02:06;9.50;99.90
26270;DHT22;15937;50.612;6.656;2024-01-30T05:06:09;9.40;99.90
26270;DHT22;15937;50.612;6.656;2024-01-30T05:10:11;9.20;99.90
26270;DHT22;15937;50.612;6.656;2024-01-30T05:14:13;9.00;99.90
26270;DHT22;15937;50.612;6.656;2024-01-30T05:18:19;9.00;99.90
26270;DHT22;15937;50.612;6.656;2024-01-30T05:22:21;8.90;99.90
26270;DHT22;15937;50.612;6.656;2024-01-30T05:26:24;8.80;99.90
26270;DHT22;15937;50.612;6.656;2024-01-30T05:30:26;8.80;99.90
26270;DHT22;15937;50.612;6.656;2024-01-30T05:34:27;8.80;99.90
26270;DHT22;15937;50.612;6.656;2024-01-30T05:38:32;8.80;99.90
26270;DHT22;15937;50.612;6.656;2024-01-30T05:42:34;8.70;99.90
26270;DHT22;15937;50.612;6.656;2024-01-30T05:46:36;8.60;99.90
26270;DHT22;15937;50.612;6.656;2024-01-30T05:50:38;8.50;99.90
26270;DHT22;15937;50.612;6.656;2024-01-30T05:54:40;8.40;99.90
26270;DHT22;15937;50.612;6.656;2024-01-30T05:58:42;8.40;99.90
26270;DHT22;15937;50.612;6.656;2024-01-30T06:02:45;8.40;99.90
26270;DHT22;15937;50.612;6.656;2024-01-30T06:06:46;8.40;99.90
26270;DHT22;15937;50.612;6.656;2024-01-30T06:10:49;8.40;99.90
26270;DHT22;15937;50.612;6.656;2024-01-30T06:14:51;8.30;99.90
26270;DHT22;15937;50.612;6.656;2024-01-30T06:18:54;8.30;99.90
26270;DHT22;15937;50.612;6.656;2024-01-30T06:22:57;8.30;99.90
26270;DHT22;15937;50.612;6.656;2024-01-30T06:26:58;8.30;99.90
26270;DHT22;15937;50.612;6.656;2024-01-30T06:31:01;8.30;99.90
26270;DHT22;15937;50.612;6.656;2024-01-30T06:35:03;8.30;99.90
26270;DHT22;15937;50.612;6.656;2024-01-30T06:39:06;8.40;99.90
26270;DHT22;15937;50.612;6.656;2024-01-30T06:43:09;8.40;99.90
26270;DHT22;15937;50.612;6.656;2024-01-30T06:47:11;8.50;99.90
26270;DHT22;15937;50.612;6.656;2024-01-30T06:51:13;8.50;99.90
26270;DHT22;15937;50.612;6.656;2024-01-30T06:55:18;8.50;99.90
26270;DHT22;15937;50.612;6.656;2024-01-30T06:59:20;8.60;99.90
26270;DHT22;15937;50.612;6.656;2024-01-30T07:03:23;8.80;99.90
26270;DHT22;15937;50.612;6.656;2024-01-30T07:07:25;8.90;99.90
26270;DHT22;15937;50.612;6.656;2024-01-30T07:11:27;8.80;99.90
26270;DHT22;15937;50.612;6.656;2024-01-30T07:15:30;8.80;99.90
26270;DHT22;15937;50.612;6.656;2024-01-30T07:19:32;8.80;99.90
26270;DHT22;15937;50.612;6.656;2024-01-30T07:23:35;8.80;99.90
26270;DHT22;15937;50.612;6.656;2024-01-30T07:27:37;8.80;99.90
26270;DHT22;15937;50.612;6.656;2024-01-30T07:31:39;8.90;99.90
26270;DHT22;15937;50.612;6.656;2024-01-30T07:35:42;9.00;99.90
26270;DHT22;15937;50.612;6.656;2024-01-30T07:39:44;9.00;99.90
26270;DHT22;15937;50.612;6.656;2024-01-30T07:43:48;9.10;99.90
26270;DHT22;15937;50.612;6.656;2024-01-30T07:47:50;9.10;99.90
26270;DHT22;15937;50.612;6.656;2024-01-30T07:51:52;9.20;99.90
26270;DHT22;15937;50.612;6.656;2024-01-30T07:55:56;9.10;99.90
26270;DHT22;15937;50.612;6.656;2024-01-30T07:59:58;9.20;99.90
26270;DHT22;15937;50.612;6.656;2024-01-30T08:04:00;9.40;99.90
26270;DHT22;15937;50.612;6.656;2024-01-30T08:08:06;9.50;99.90
26270;DHT22;15937;50.612;6.656;2024-01-30T08:12:08;9.70;99.90
26270;DHT22;15937;50.612;6.656;2024-01-30T08:16:10;9.80;99.90
26270;DHT22;15937;50.612;6.656;2024-01-30T08:20:23;9.90;99.90
26270;DHT22;15937;50.612;6.656;2024-01-30T08:24:33;10.10;99.90
26270;DHT22;15937;50.612;6.656;2024-01-30T08:28:38;10.30;99.90
26270;DHT22;15937;50.612;6.656;2024-01-30T08:32:51;10.40;99.90
26270;DHT22;15937;50.612;6.656;2024-01-30T08:36:54;10.50;99.90
26270;DHT22;15937;50.612;6.656;2024-01-30T08:40:56;10.70;99.90
26270;DHT22;15937;50.612;6.656;2024-01-30T08:44:58;10.70;99.90
26270;DHT22;15937;50.612;6.656;2024-01-30T08:49:00;10.70;99.90
26270;DHT22;15937;50.612;6.656;2024-01-30T08:53:03;10.70;99.90
26270;DHT22;15937;50.612;6.656;2024-01-30T08:57:05;10.80;99.90
26270;DHT22;15937;50.612;6.656;2024-01-30T09:01:08;10.80;99.90
26270;DHT22;15937;50.612;6.656;2024-01-30T09:05:10;10.80;99.90
26270;DHT22;15937;50.612;6.656;2024-01-30T09:09:13;10.80;99.90
26270;DHT22;15937;50.612;6.656;2024-01-30T09:13:16;10.80;99.90
26270;DHT22;15937;50.612;6.656;2024-01-30T09:17:19;10.80;99.90
26270;DHT22;15937;50.612;6.656;2024-01-30T09:21:21;10.80;99.90
26270;DHT22;15937;50.612;6.656;2024-01-30T09:25:23;10.80;99.90
26270;DHT22;15937;50.612;6.656;2024-01-30T09:29:25;10.80;99.90
26270;DHT22;15937;50.612;6.656;2024-01-30T09:33:30;10.70;99.90
26270;DHT22;15937;50.612;6.656;2024-01-30T09:37:32;10.70;99.90
26270;DHT22;15937;50.612;6.656;2024-01-30T09:41:53;10.70;99.90
26270;DHT22;15937;50.612;6.656;2024-01-30T09:45:57;10.60;99.90
26270;DHT22;15937;50.612;6.656;2024-01-30T09:50:00;10.60;99.90
26270;DHT22;15937;50.612;6.656;2024-01-30T09:54:04;10.60;99.90
26270;DHT22;15937;50.612;6.656;2024-01-30T09:58:07;10.60;99.90
26270;DHT22;15937;50.612;6.656;2024-01-30T10:02:10;10.70;99.90
26270;DHT22;15937;50.612;6.656;2024-01-30T10:06:12;10.70;99.90
26270;DHT22;15937;50.612;6.656;2024-01-30T10:10:14;10.80;99.90
26270;DHT22;15937;50.612;6.656;2024-01-30T10:14:19;10.80;99.90
26270;DHT22;15937;50.612;6.656;2024-01-30T10:18:24;10.80;99.90
26270;DHT22;15937;50.612;6.656;2024-01-30T10:22:26;10.90;99.90
26270;DHT22;15937;50.612;6.656;2024-01-30T10:26:28;10.90;99.90
26270;DHT22;15937;50.612;6.656;2024-01-30T10:30:31;11.00;99.90
26270;DHT22;15937;50.612;6.656;2024-01-30T10:34:34;11.10;99.90
26270;DHT22;15937;50.612;6.656;2024-01-30T10:38:37;11.10;99.90
26270;DHT22;15937;50.612;6.656;2024-01-30T10:42:43;11.10;99.90
26270;DHT22;15937;50.612;6.656;2024-01-30T10:46:51;11.30;99.90
26270;DHT22;15937;50.612;6.656;2024-01-30T10:50:59;11.30;99.90
26270;DHT22;15937;50.612;6.656;2024-01-30T10:55:04;11.40;99.90
26270;DHT22;15937;50.612;6.656;2024-01-30T10:59:09;11.40;99.90
26270;DHT22;15937;50.612;6.656;2024-01-30T11:03:12;11.50;99.90
26270;DHT22;15937;50.612;6.656;2024-01-30T11:07:19;11.50;99.90
26270;DHT22;15937;50.612;6.656;2024-01-30T11:11:25;11.50;99.90
26270;DHT22;15937;50.612;6.656;2024-01-30T11:15:28;11.60;99.90
26270;DHT22;15937;50.612;6.656;2024-01-30T11:19:32;11.60;99.90
26270;DHT22;15937;50.612;6.656;2024-01-30T11:23:35;11.70;99.90
26270;DHT22;15937;50.612;6.656;2024-01-30T11:27:38;11.80;99.90
26270;DHT22;15937;50.612;6.656;2024-01-30T11:31:50;11.80;99.90
26270;DHT22;15937;50.612;6.656;2024-01-30T11:35:53;11.80;99.90
26270;DHT22;15937;50.612;6.656;2024-01-30T11:39:55;11.80;99.90
26270;DHT22;15937;50.612;6.656;2024-01-30T11:43:58;11.80;99.90
26270;DHT22;15937;50.612;6.656;2024-01-30T11:48:00;11.80;99.90
26270;DHT22;15937;50.612;6.656;2024-01-30T11:52:06;11.80;99.90
26270;DHT22;15937;50.612;6.656;2024-01-30T11:56:08;11.80;99.90
26270;DHT22;15937;50.612;6.656;2024-01-30T12:00:15;11.90;99.90
26270;DHT22;15937;50.612;6.656;2024-01-30T12:04:17;11.90;99.90
26270;DHT22;15937;50.612;6.656;2024-01-30T12:08:19;12.00;99.90
26270;DHT22;15937;50.612;6.656;2024-01-30T12:12:25;12.00;99.90
26270;DHT22;15937;50.612;6.656;2024-01-30T12:16:27;12.00;99.90
26270;DHT22;15937;50.612;6.656;2024-01-30T12:20:29;12.10;99.90
26270;DHT22;15937;50.612;6.656;2024-01-30T12:24:32;12.10;99.90
26270;DHT22;15937;50.612;6.656;2024-01-30T12:28:35;12.10;99.90
26270;DHT22;15937;50.612;6.656;2024-01-30T12:32:40;12.20;99.90
26270;DHT22;15937;50.612;6.656;2024-01-30T12:36:43;12.30;99.90
26270;DHT22;15937;50.612;6.656;2024-01-30T12:40:46;12.30;99.90
26270;DHT22;15937;50.612;6.656;2024-01-30T12:44:49;12.40;99.90
26270;DHT22;15937;50.612;6.656;2024-01-30T12:48:51;12.40;99.90
26270;DHT22;15937;50.612;6.656;2024-01-30T12:52:53;12.50;99.90
26270;DHT22;15937;50.612;6.656;2024-01-30T12:56:55;12.60;99.90
26270;DHT22;15937;50.612;6.656;2024-01-30T13:00:58;12.70;99.90
26270;DHT22;15937;50.612;6.656;2024-01-30T13:05:00;12.70;99.90
26270;DHT22;15937;50.612;6.656;2024-01-30T13:09:02;12.60;99.90
26270;DHT22;15937;50.612;6.656;2024-01-30T13:13:04;12.60;99.90
26270;DHT22;15937;50.612;6.656;2024-01-30T13:17:15;12.60;99.90
26270;DHT22;15937;50.612;6.656;2024-01-30T13:21:17;12.50;99.90
26270;DHT22;15937;50.612;6.656;2024-01-30T13:25:19;12.50;99.90
26270;DHT22;15937;50.612;6.656;2024-01-30T13:29:21;12.50;99.90
26270;DHT22;15937;50.612;6.656;2024-01-30T13:33:23;12.50;99.90
26270;DHT22;15937;50.612;6.656;2024-01-30T13:37:25;12.50;99.90
26270;DHT22;15937;50.612;6.656;2024-01-30T13:41:27;12.50;99.90
26270;DHT22;15937;50.612;6.656;2024-01-30T13:45:29;12.50;99.90
26270;DHT22;15937;50.612;6.656;2024-01-30T13:49:31;12.50;99.90
26270;DHT22;15937;50.612;6.656;2024-01-30T13:53:33;12.40;99.90
26270;DHT22;15937;50.612;6.656;2024-01-30T13:57:36;12.40;99.90
26270;DHT22;15937;50.612;6.656;2024-01-30T14:01:38;12.30;99.90
26270;DHT22;15937;50.612;6.656;2024-01-30T14:05:41;12.20;99.90
26270;DHT22;15937;50.612;6.656;2024-01-30T14:09:43;12.20;99.90
26270;DHT22;15937;50.612;6.656;2024-01-30T14:13:45;12.30;99.90
26270;DHT22;15937;50.612;6.656;2024-01-30T14:17:47;12.20;99.90
26270;DHT22;15937;50.612;6.656;2024-01-30T14:21:51;12.20;99.90
26270;DHT22;15937;50.612;6.656;2024-01-30T14:25:53;12.30;99.90
26270;DHT22;15937;50.612;6.656;2024-01-30T14:29:56;12.30;99.90
26270;DHT22;15937;50.612;6.656;2024-01-30T14:33:58;12.30;99.90
26270;DHT22;15937;50.612;6.656;2024-01-30T14:38:00;12.20;99.90
26270;DHT22;15937;50.612;6.656;2024-01-30T14:42:04;12.20;99.90
26270;DHT22;15937;50.612;6.656;2024-01-30T14:46:05;12.20;99.90
26270;DHT22;15937;50.612;6.656;2024-01-30T14:50:09;12.30;99.90
26270;DHT22;15937;50.612;6.656;2024-01-30T14:54:11;12.30;99.90
26270;DHT22;15937;50.612;6.656;2024-01-30T14:58:14;12.30;99.90
26270;DHT22;15937;50.612;6.656;2024-01-30T15:02:16;12.20;99.90
26270;DHT22;15937;50.612;6.656;2024-01-30T15:06:22;12.30;99.90
26270;DHT22;15937;50.612;6.656;2024-01-30T15:10:26;12.20;99.90
26270;DHT22;15937;50.612;6.656;2024-01-30T15:14:28;12.20;99.90
26270;DHT22;15937;50.612;6.656;2024-01-30T15:18:30;12.10;99.90
26270;DHT22;15937;50.612;6.656;2024-01-30T15:22:33;12.00;99.90
26270;DHT22;15937;50.612;6.656;2024-01-30T15:26:38;12.00;99.90
26270;DHT22;15937;50.612;6.656;2024-01-30T15:30:40;11.90;99.90
26270;DHT22;15937;50.612;6.656;2024-01-30T15:34:47;11.80;99.90
26270;DHT22;15937;50.612;6.656;2024-01-30T15:38:49;11.80;99.90
26270;DHT22;15937;50.612;6.656;2024-01-30T15:42:51;11.70;99.90
26270;DHT22;15937;50.612;6.656;2024-01-30T15:46:53;11.80;99.90
26270;DHT22;15937;50.612;6.656;2024-01-30T15:50:55;11.80;99.90
26270;DHT22;15937;50.612;6.656;2024-01-30T15:54:57;11.80;99.90
26270;DHT22;15937;50.612;6.656;2024-01-30T15:58:59;11.70;99.90
26270;DHT22;15937;50.612;6.656;2024-01-30T16:03:01;11.70;99.90
26270;DHT22;15937;50.612;6.656;2024-01-30T16:07:06;11.70;99.90
26270;DHT22;15937;50.612;6.656;2024-01-30T16:11:09;11.50;99.90
26270;DHT22;15937;50.612;6.656;2024-01-30T16:15:12;11.50;99.90
26270;DHT22;15937;50.612;6.656;2024-01-30T16:19:14;11.50;99.90
26270;DHT22;15937;50.612;6.656;2024-01-30T16:23:16;11.50;99.90
26270;DHT22;15937;50.612;6.656;2024-01-30T16:27:18;11.40;99.90
26270;DHT22;15937;50.612;6.656;2024-01-30T16:31:20;11.40;99.90
26270;DHT22;15937;50.612;6.656;2024-01-30T16:35:22;11.30;99.90
26270;DHT22;15937;50.612;6.656;2024-01-30T16:39:44;11.30;99.90
26270;DHT22;15937;50.612;6.656;2024-01-30T16:43:47;11.30;99.90
26270;DHT22;15937;50.612;6.656;2024-01-30T16:47:49;11.20;99.90
26270;DHT22;15937;50.612;6.656;2024-01-30T16:51:51;11.20;99.90
26270;DHT22;15937;50.612;6.656;2024-01-30T16:55:53;11.10;99.90
26270;DHT22;15937;50.612;6.656;2024-01-30T16:59:57;11.10;99.90
26270;DHT22;15937;50.612;6.656;2024-01-30T17:04:00;11.20;99.90
26270;DHT22;15937;50.612;6.656;2024-01-30T17:08:02;11.10;99.90
26270;DHT22;15937;50.612;6.656;2024-01-30T17:12:06;10.80;99.90
26270;DHT22;15937;50.612;6.656;2024-01-30T17:16:11;10.40;99.90
26270;DHT22;15937;50.612;6.656;2024-01-30T17:20:15;10.20;99.90
26270;DHT22;15937;50.612;6.656;2024-01-30T17:24:17;10.10;99.90
26270;DHT22;15937;50.612;6.656;2024-01-30T17:28:21;9.90;99.90
26270;DHT22;15937;50.612;6.656;2024-01-30T17:32:23;9.80;99.90
26270;DHT22;15937;50.612;6.656;2024-01-30T17:36:28;9.80;99.90
26270;DHT22;15937;50.612;6.656;2024-01-30T17:40:30;9.70;99.90
26270;DHT22;15937;50.612;6.656;2024-01-30T17:44:32;9.70;99.90
26270;DHT22;15937;50.612;6.656;2024-01-30T17:48:41;9.60;99.90
26270;DHT22;15937;50.612;6.656;2024-01-30T17:52:46;9.40;99.90
26270;DHT22;15937;50.612;6.656;2024-01-30T17:56:48;9.40;99.90
26270;DHT22;15937;50.612;6.656;2024-01-30T18:00:50;9.40;99.90
26270;DHT22;15937;50.612;6.656;2024-01-30T18:04:52;9.40;99.90
26270;DHT22;15937;50.612;6.656;2024-01-30T18:08:57;9.40;99.90
26270;DHT22;15937;50.612;6.656;2024-01-30T18:13:01;9.50;99.90
26270;DHT22;15937;50.612;6.656;2024-01-30T18:17:05;9.40;99.90
26270;DHT22;15937;50.612;6.656;2024-01-30T18:21:08;9.60;99.90
26270;DHT22;15937;50.612;6.656;2024-01-30T18:25:10;9.50;99.90
26270;DHT22;15937;50.612;6.656;2024-01-30T18:29:13;9.60;99.90
26270;DHT22;15937;50.612;6.656;2024-01-30T18:33:16;9.60;99.90
26270;DHT22;15937;50.612;6.656;2024-01-30T18:37:18;9.60;99.90
26270;DHT22;15937;50.612;6.656;2024-01-30T18:41:19;9.50;99.90
26270;DHT22;15937;50.612;6.656;2024-01-30T18:45:22;9.40;99.90
26270;DHT22;15937;50.612;6.656;2024-01-30T18:49:25;9.30;99.90
26270;DHT22;15937;50.612;6.656;2024-01-30T18:53:27;9.30;99.90
26270;DHT22;15937;50.612;6.656;2024-01-30T18:57:32;9.20;99.90
26270;DHT22;15937;50.612;6.656;2024-01-30T19:01:34;9.30;99.90
26270;DHT22;15937;50.612;6.656;2024-01-30T19:05:36;9.30;99.90
26270;DHT22;15937;50.612;6.656;2024-01-30T19:09:39;9.30;99.90
26270;DHT22;15937;50.612;6.656;2024-01-30T19:13:41;9.30;99.90
26270;DHT22;15937;50.612;6.656;2024-01-30T19:17:44;9.20;99.90
26270;DHT22;15937;50.612;6.656;2024-01-30T19:21:46;9.20;99.90
26270;DHT22;15937;50.612;6.656;2024-01-30T19:25:48;9.10;99.90
26270;DHT22;15937;50.612;6.656;2024-01-30T19:29:50;9.20;99.90
26270;DHT22;15937;50.612;6.656;2024-01-30T19:33:53;9.10;99.90
26270;DHT22;15937;50.612;6.656;2024-01-30T19:37:57;9.00;99.90
26270;DHT22;15937;50.612;6.656;2024-01-30T19:41:59;9.10;99.90
26270;DHT22;15937;50.612;6.656;2024-01-30T19:46:01;9.10;99.90
26270;DHT22;15937;50.612;6.656;2024-01-30T19:50:04;9.00;99.90
26270;DHT22;15937;50.612;6.656;2024-01-30T19:54:11;9.00;99.90
26270;DHT22;15937;50.612;6.656;2024-01-30T19:58:20;8.90;99.90
26270;DHT22;15937;50.612;6.656;2024-01-30T20:02:22;8.90;99.90
26270;DHT22;15937;50.612;6.656;2024-01-30T20:06:26;8.90;99.90
26270;DHT22;15937;50.612;6.656;2024-01-30T20:10:28;8.90;99.90
26270;DHT22;15937;50.612;6.656;2024-01-30T20:14:30;8.80;99.90
26270;DHT22;15937;50.612;6.656;2024-01-30T20:18:32;8.80;99.90
26270;DHT22;15937;50.612;6.656;2024-01-30T20:22:36;8.90;99.90
26270;DHT22;15937;50.612;6.656;2024-01-30T20:26:39;8.80;99.90
26270;DHT22;15937;50.612;6.656;2024-01-30T20:30:41;8.90;99.90
26270;DHT22;15937;50.612;6.656;2024-01-30T20:34:45;8.90;99.90
26270;DHT22;15937;50.612;6.656;2024-01-30T20:38:50;8.90;99.90
26270;DHT22;15937;50.612;6.656;2024-01-30T20:42:57;8.80;99.90
26270;DHT22;15937;50.612;6.656;2024-01-30T20:46:59;8.80;99.90
26270;DHT22;15937;50.612;6.656;2024-01-30T20:51:01;8.70;99.90
26270;DHT22;15937;50.612;6.656;2024-01-30T20:55:03;8.60;99.90
26270;DHT22;15937;50.612;6.656;2024-01-30T20:59:05;8.60;99.90
26270;DHT22;15937;50.612;6.656;2024-01-30T21:03:07;8.60;99.90
26270;DHT22;15937;50.612;6.656;2024-01-30T21:07:12;8.60;99.90
26270;DHT22;15937;50.612;6.656;2024-01-30T21:11:25;8.60;99.90
26270;DHT22;15937;50.612;6.656;2024-01-30T21:15:30;8.50;99.90
26270;DHT22;15937;50.612;6.656;2024-01-30T21:19:32;8.40;99.90
26270;DHT22;15937;50.612;6.656;2024-01-30T21:23:34;8.40;99.90
26270;DHT22;15937;50.612;6.656;2024-01-30T21:27:36;8.50;99.90
26270;DHT22;15937;50.612;6.656;2024-01-30T21:31:46;8.40;99.90
26270;DHT22;15937;50.612;6.656;2024-01-30T21:35:49;8.50;99.90
26270;DHT22;15937;50.612;6.656;2024-01-30T21:39:51;8.40;99.90
26270;DHT22;15937;50.612;6.656;2024-01-30T21:43:56;8.40;99.90
26270;DHT22;15937;50.612;6.656;2024-01-30T21:47:57;8.30;99.90
26270;DHT22;15937;50.612;6.656;2024-01-30T21:51:59;8.30;99.90
26270;DHT22;15937;50.612;6.656;2024-01-30T21:56:07;8.40;99.90
26270;DHT22;15937;50.612;6.656;2024-01-30T22:00:10;8.30;99.90
26270;DHT22;15937;50.612;6.656;2024-01-30T22:04:12;8.20;99.90
26270;DHT22;15937;50.612;6.656;2024-01-30T22:08:14;8.20;99.90
26270;DHT22;15937;50.612;6.656;2024-01-30T22:12:17;8.20;99.90
26270;DHT22;15937;50.612;6.656;2024-01-30T22:16:19;8.10;99.90
26270;DHT22;15937;50.612;6.656;2024-01-30T22:20:21;8.00;99.90
26270;DHT22;15937;50.612;6.656;2024-01-30T22:24:23;8.10;99.90
26270;DHT22;15937;50.612;6.656;2024-01-30T22:28:25;8.00;99.90
26270;DHT22;15937;50.612;6.656;2024-01-30T22:32:27;8.00;99.90
26270;DHT22;15937;50.612;6.656;2024-01-30T22:36:31;8.10;99.90
26270;DHT22;15937;50.612;6.656;2024-01-30T22:40:34;8.10;99.90
26270;DHT22;15937;50.612;6.656;2024-01-30T22:44:36;8.00;99.90
26270;DHT22;15937;50.612;6.656;2024-01-30T22:48:38;8.00;99.90
26270;DHT22;15937;50.612;6.656;2024-01-30T22:52:40;8.10;99.90
26270;DHT22;15937;50.612;6.656;2024-01-30T22:56:44;8.00;99.90
26270;DHT22;15937;50.612;6.656;2024-01-30T23:00:47;8.00;99.90
26270;DHT22;15937;50.612;6.656;2024-01-30T23:04:49;8.00;99.90
26270;DHT22;15937;50.612;6.656;2024-01-30T23:08:52;7.90;99.90
26270;DHT22;15937;50.612;6.656;2024-01-30T23:12:54;8.00;99.90
26270;DHT22;15937;50.612;6.656;2024-01-30T23:16:56;7.90;99.90
26270;DHT22;15937;50.612;6.656;2024-01-30T23:20:58;7.80;99.90
26270;DHT22;15937;50.612;6.656;2024-01-30T23:25:00;7.90;99.90
26270;DHT22;15937;50.612;6.656;2024-01-30T23:29:02;7.80;99.90
26270;DHT22;15937;50.612;6.656;2024-01-30T23:33:04;7.80;99.90
26270;DHT22;15937;50.612;6.656;2024-01-30T23:37:06;7.90;99.90
26270;DHT22;15937;50.612;6.656;2024-01-30T23:41:09;7.90;99.90
26270;DHT22;15937;50.612;6.656;2024-01-30T23:45:11;7.80;99.90
26270;DHT22;15937;50.612;6.656;2024-01-30T23:49:15;7.80;99.90
26270;DHT22;15937;50.612;6.656;2024-01-30T23:53:17;7.80;99.90
26270;DHT22;15937;50.612;6.656;2024-01-30T23:57:19;7.80;99.90
